sensor_id;sensor_type;location;lat;lon;timestamp;pressure;altitude;pressure_sealevel;temperature;humidity
13869;BME280;7004;48.206;16.402;2023-11-19T00:01:32;100273.72;;;3.89;80.77
13869;BME280;7004;48.206;16.402;2023-11-19T00:03:58;100276.28;;;4.22;79.69
13869;BME280;7004;48.206;16.402;2023-11-19T00:06:25;100273.66;;;4.51;77.51
13869;BME280;7004;48.206;16.402;2023-11-19T00:08:51;100276.22;;;4.54;77.18
13869;BME280;7004;48.206;16.402;2023-11-19T00:11:17;100277.59;;;4.66;76.25
13869;BME280;7004;48.206;16.402;2023-11-19T00:13:44;100269.66;;;4.69;76.18
13869;BME280;7004;48.206;16.402;2023-11-19T00:16:10;100270.53;;;4.70;76.23
13869;BME280;7004;48.206;16.402;2023-11-19T00:18:36;100266.97;;;4.72;75.97
13869;BME280;7004;48.206;16.402;2023-11-19T00:21:02;100267.19;;;4.65;76.71
13869;BME280;7004;48.206;16.402;2023-11-19T00:23:29;100263.56;;;4.69;77.21
13869;BME280;7004;48.206;16.402;2023-11-19T00:25:55;100264.38;;;4.71;77.29
13869;BME280;7004;48.206;16.402;2023-11-19T00:28:21;100272.00;;;4.78;76.11
13869;BME280;7004;48.206;16.402;2023-11-19T00:30:47;100265.72;;;4.84;75.51
13869;BME280;7004;48.206;16.402;2023-11-19T00:33:13;100270.19;;;4.80;75.59
13869;BME280;7004;48.206;16.402;2023-11-19T00:35:39;100275.09;;;4.91;75.19
13869;BME280;7004;48.206;16.402;2023-11-19T00:38:05;100266.56;;;4.85;75.05
13869;BME280;7004;48.206;16.402;2023-11-19T00:40:31;100255.53;;;4.45;78.11
13869;BME280;7004;48.206;16.402;2023-11-19T00:42:57;100264.09;;;4.52;78.00
13869;BME280;7004;48.206;16.402;2023-11-19T00:45:24;100260.84;;;4.44;78.17
13869;BME280;7004;48.206;16.402;2023-11-19T00:47:51;100247.25;;;4.59;77.89
13869;BME280;7004;48.206;16.402;2023-11-19T00:50:17;100240.56;;;4.78;77.84
13869;BME280;7004;48.206;16.402;2023-11-19T00:52:43;100256.41;;;4.74;75.53
13869;BME280;7004;48.206;16.402;2023-11-19T00:55:09;100252.72;;;4.81;75.11
13869;BME280;7004;48.206;16.402;2023-11-19T00:57:36;100250.03;;;4.54;76.10
13869;BME280;7004;48.206;16.402;2023-11-19T01:00:03;100241.09;;;4.32;75.84
13869;BME280;7004;48.206;16.402;2023-11-19T01:02:41;100239.13;;;4.40;75.99
13869;BME280;7004;48.206;16.402;2023-11-19T01:05:08;100233.63;;;4.77;75.58
13869;BME280;7004;48.206;16.402;2023-11-19T01:07:35;100225.25;;;4.93;75.06
13869;BME280;7004;48.206;16.402;2023-11-19T01:10:01;100231.91;;;5.03;74.42
13869;BME280;7004;48.206;16.402;2023-11-19T01:12:29;100241.38;;;4.80;75.10
13869;BME280;7004;48.206;16.402;2023-11-19T01:14:57;100229.06;;;4.26;78.53
13869;BME280;7004;48.206;16.402;2023-11-19T01:17:23;100222.03;;;4.28;78.88
13869;BME280;7004;48.206;16.402;2023-11-19T01:19:50;100223.31;;;4.43;78.34
13869;BME280;7004;48.206;16.402;2023-11-19T01:22:16;100214.50;;;4.74;76.57
13869;BME280;7004;48.206;16.402;2023-11-19T01:24:42;100196.72;;;4.85;74.91
13869;BME280;7004;48.206;16.402;2023-11-19T01:27:08;100197.66;;;4.82;74.68
13869;BME280;7004;48.206;16.402;2023-11-19T01:29:34;100191.16;;;4.94;74.74
13869;BME280;7004;48.206;16.402;2023-11-19T01:32:00;100194.97;;;4.84;75.05
13869;BME280;7004;48.206;16.402;2023-11-19T01:34:26;100199.81;;;4.70;74.63
13869;BME280;7004;48.206;16.402;2023-11-19T01:36:52;100190.22;;;4.69;76.08
13869;BME280;7004;48.206;16.402;2023-11-19T01:39:18;100185.25;;;4.88;75.59
13869;BME280;7004;48.206;16.402;2023-11-19T01:41:45;100187.09;;;4.86;75.81
13869;BME280;7004;48.206;16.402;2023-11-19T01:44:11;100187.50;;;4.72;75.42
13869;BME280;7004;48.206;16.402;2023-11-19T01:46:43;100185.72;;;4.46;77.50
13869;BME280;7004;48.206;16.402;2023-11-19T01:49:10;100177.72;;;4.50;77.78
13869;BME280;7004;48.206;16.402;2023-11-19T01:51:39;100179.13;;;4.62;76.77
13869;BME280;7004;48.206;16.402;2023-11-19T01:54:07;100168.56;;;4.90;74.34
13869;BME280;7004;48.206;16.402;2023-11-19T01:56:35;100156.41;;;4.89;75.26
13869;BME280;7004;48.206;16.402;2023-11-19T01:59:03;100152.81;;;4.92;76.99
13869;BME280;7004;48.206;16.402;2023-11-19T02:01:30;100155.53;;;4.62;78.64
13869;BME280;7004;48.206;16.402;2023-11-19T02:04:03;100154.25;;;4.47;80.27
13869;BME280;7004;48.206;16.402;2023-11-19T02:06:34;100150.56;;;4.26;82.03
13869;BME280;7004;48.206;16.402;2023-11-19T02:09:03;100146.91;;;4.30;82.10
13869;BME280;7004;48.206;16.402;2023-11-19T02:11:35;100143.16;;;4.67;79.76
13869;BME280;7004;48.206;16.402;2023-11-19T02:14:05;100143.19;;;4.39;81.29
13869;BME280;7004;48.206;16.402;2023-11-19T02:16:32;100133.56;;;4.11;82.03
13869;BME280;7004;48.206;16.402;2023-11-19T02:18:59;100123.38;;;4.30;82.06
13869;BME280;7004;48.206;16.402;2023-11-19T02:21:26;100109.72;;;4.49;80.69
13869;BME280;7004;48.206;16.402;2023-11-19T02:23:52;100094.88;;;4.74;79.88
13869;BME280;7004;48.206;16.402;2023-11-19T02:26:33;100092.56;;;4.92;79.88
13869;BME280;7004;48.206;16.402;2023-11-19T02:29:03;100075.81;;;5.21;75.64
13869;BME280;7004;48.206;16.402;2023-11-19T02:31:29;100080.56;;;4.85;79.31
13869;BME280;7004;48.206;16.402;2023-11-19T02:33:55;100068.88;;;4.95;79.68
13869;BME280;7004;48.206;16.402;2023-11-19T02:36:24;100072.78;;;5.08;80.37
13869;BME280;7004;48.206;16.402;2023-11-19T02:38:50;100073.38;;;4.91;81.14
13869;BME280;7004;48.206;16.402;2023-11-19T02:41:16;100075.25;;;5.13;79.88
13869;BME280;7004;48.206;16.402;2023-11-19T02:43:42;100075.94;;;5.41;76.66
13869;BME280;7004;48.206;16.402;2023-11-19T02:46:08;100083.25;;;5.08;71.91
13869;BME280;7004;48.206;16.402;2023-11-19T02:48:37;100082.72;;;5.47;71.07
13869;BME280;7004;48.206;16.402;2023-11-19T02:51:04;100079.53;;;5.62;71.43
13869;BME280;7004;48.206;16.402;2023-11-19T02:53:36;100075.66;;;5.25;77.27
13869;BME280;7004;48.206;16.402;2023-11-19T02:56:06;100064.75;;;4.88;77.06
13869;BME280;7004;48.206;16.402;2023-11-19T02:58:45;100056.56;;;5.22;77.23
13869;BME280;7004;48.206;16.402;2023-11-19T03:01:12;100051.38;;;4.95;77.35
13869;BME280;7004;48.206;16.402;2023-11-19T03:03:51;100061.38;;;4.84;79.17
13869;BME280;7004;48.206;16.402;2023-11-19T03:06:23;100055.19;;;4.87;79.95
13869;BME280;7004;48.206;16.402;2023-11-19T03:08:50;100051.72;;;4.86;80.88
13869;BME280;7004;48.206;16.402;2023-11-19T03:11:17;100044.13;;;5.03;81.06
13869;BME280;7004;48.206;16.402;2023-11-19T03:13:52;100043.19;;;5.30;80.14
13869;BME280;7004;48.206;16.402;2023-11-19T03:16:20;100041.41;;;5.07;82.13
13869;BME280;7004;48.206;16.402;2023-11-19T03:18:46;100037.72;;;4.87;82.20
13869;BME280;7004;48.206;16.402;2023-11-19T03:21:13;100032.16;;;4.71;83.22
13869;BME280;7004;48.206;16.402;2023-11-19T03:23:40;100010.19;;;4.75;84.92
13869;BME280;7004;48.206;16.402;2023-11-19T03:26:07;100005.88;;;4.98;83.61
13869;BME280;7004;48.206;16.402;2023-11-19T03:28:34;99997.41;;;4.41;85.84
13869;BME280;7004;48.206;16.402;2023-11-19T03:31:04;99996.81;;;4.58;85.94
13869;BME280;7004;48.206;16.402;2023-11-19T03:33:34;100008.09;;;4.60;85.94
13869;BME280;7004;48.206;16.402;2023-11-19T03:36:00;99995.75;;;4.64;85.53
13869;BME280;7004;48.206;16.402;2023-11-19T03:38:26;100007.22;;;4.34;87.60
13869;BME280;7004;48.206;16.402;2023-11-19T03:40:52;99996.97;;;5.03;85.06
13869;BME280;7004;48.206;16.402;2023-11-19T03:43:18;99991.31;;;4.91;86.72
13869;BME280;7004;48.206;16.402;2023-11-19T03:45:47;99983.22;;;4.97;87.45
13869;BME280;7004;48.206;16.402;2023-11-19T03:48:14;99984.44;;;4.63;88.55
13869;BME280;7004;48.206;16.402;2023-11-19T03:50:43;99987.56;;;4.48;88.14
13869;BME280;7004;48.206;16.402;2023-11-19T03:53:12;99983.81;;;4.30;89.32
13869;BME280;7004;48.206;16.402;2023-11-19T03:55:38;99970.66;;;5.07;88.80
13869;BME280;7004;48.206;16.402;2023-11-19T03:58:04;99965.69;;;4.75;88.64
13869;BME280;7004;48.206;16.402;2023-11-19T04:00:30;99957.75;;;5.00;88.27
13869;BME280;7004;48.206;16.402;2023-11-19T04:02:57;99961.47;;;4.95;90.10
13869;BME280;7004;48.206;16.402;2023-11-19T04:05:23;99950.94;;;4.96;91.52
13869;BME280;7004;48.206;16.402;2023-11-19T04:07:49;99946.22;;;5.06;89.20
13869;BME280;7004;48.206;16.402;2023-11-19T04:10:15;99938.03;;;4.90;90.36
13869;BME280;7004;48.206;16.402;2023-11-19T04:12:42;99940.97;;;4.82;92.10
13869;BME280;7004;48.206;16.402;2023-11-19T04:15:09;99934.25;;;4.75;93.38
13869;BME280;7004;48.206;16.402;2023-11-19T04:17:35;99931.34;;;4.83;93.39
13869;BME280;7004;48.206;16.402;2023-11-19T04:20:01;99924.09;;;5.13;92.13
13869;BME280;7004;48.206;16.402;2023-11-19T04:22:27;99919.38;;;4.99;93.18
13869;BME280;7004;48.206;16.402;2023-11-19T04:24:53;99915.56;;;4.85;91.68
13869;BME280;7004;48.206;16.402;2023-11-19T04:27:19;99909.41;;;4.62;93.91
13869;BME280;7004;48.206;16.402;2023-11-19T04:29:45;99924.69;;;5.21;92.30
13869;BME280;7004;48.206;16.402;2023-11-19T04:32:12;99928.84;;;5.03;93.46
13869;BME280;7004;48.206;16.402;2023-11-19T04:34:38;99925.31;;;4.81;94.49
13869;BME280;7004;48.206;16.402;2023-11-19T04:37:05;99922.28;;;4.92;93.63
13869;BME280;7004;48.206;16.402;2023-11-19T04:39:31;99915.34;;;4.67;94.92
13869;BME280;7004;48.206;16.402;2023-11-19T04:41:57;99912.50;;;4.97;94.58
13869;BME280;7004;48.206;16.402;2023-11-19T04:44:23;99922.34;;;4.90;94.36
13869;BME280;7004;48.206;16.402;2023-11-19T04:46:49;99916.06;;;4.71;95.05
13869;BME280;7004;48.206;16.402;2023-11-19T04:49:15;99907.78;;;5.07;94.76
13869;BME280;7004;48.206;16.402;2023-11-19T04:51:44;99916.53;;;5.06;92.99
13869;BME280;7004;48.206;16.402;2023-11-19T04:54:13;99912.72;;;5.14;92.71
13869;BME280;7004;48.206;16.402;2023-11-19T04:56:39;99897.78;;;4.93;93.86
13869;BME280;7004;48.206;16.402;2023-11-19T04:59:06;99887.66;;;5.07;93.31
13869;BME280;7004;48.206;16.402;2023-11-19T05:01:33;99891.00;;;5.11;92.68
13869;BME280;7004;48.206;16.402;2023-11-19T05:03:59;99879.97;;;4.79;93.16
13869;BME280;7004;48.206;16.402;2023-11-19T05:06:30;99873.16;;;4.75;94.71
13869;BME280;7004;48.206;16.402;2023-11-19T05:08:58;99863.56;;;4.97;93.89
13869;BME280;7004;48.206;16.402;2023-11-19T05:11:27;99870.69;;;4.94;94.26
13869;BME280;7004;48.206;16.402;2023-11-19T05:13:54;99876.16;;;5.11;94.37
13869;BME280;7004;48.206;16.402;2023-11-19T05:16:20;99877.88;;;4.89;94.33
13869;BME280;7004;48.206;16.402;2023-11-19T05:18:47;99877.91;;;5.11;94.09
13869;BME280;7004;48.206;16.402;2023-11-19T05:21:13;99866.19;;;4.97;93.98
13869;BME280;7004;48.206;16.402;2023-11-19T05:23:39;99869.50;;;4.79;94.86
13869;BME280;7004;48.206;16.402;2023-11-19T05:26:08;99864.38;;;4.99;93.79
13869;BME280;7004;48.206;16.402;2023-11-19T05:28:34;99857.41;;;4.51;94.28
13869;BME280;7004;48.206;16.402;2023-11-19T05:31:00;99865.16;;;5.01;95.22
13869;BME280;7004;48.206;16.402;2023-11-19T05:33:26;99862.13;;;5.12;95.39
13869;BME280;7004;48.206;16.402;2023-11-19T05:35:52;99860.38;;;4.89;94.34
13869;BME280;7004;48.206;16.402;2023-11-19T05:38:18;99855.19;;;4.88;95.18
13869;BME280;7004;48.206;16.402;2023-11-19T05:40:44;99849.34;;;4.81;95.94
13869;BME280;7004;48.206;16.402;2023-11-19T05:43:12;99848.78;;;4.73;95.02
13869;BME280;7004;48.206;16.402;2023-11-19T05:45:38;99843.31;;;4.32;96.40
13869;BME280;7004;48.206;16.402;2023-11-19T05:48:04;99834.78;;;4.50;96.05
13869;BME280;7004;48.206;16.402;2023-11-19T05:50:31;99836.94;;;4.63;94.76
13869;BME280;7004;48.206;16.402;2023-11-19T05:52:57;99824.59;;;4.43;95.44
13869;BME280;7004;48.206;16.402;2023-11-19T05:55:23;99822.38;;;4.55;95.45
13869;BME280;7004;48.206;16.402;2023-11-19T05:57:50;99818.91;;;4.78;95.19
13869;BME280;7004;48.206;16.402;2023-11-19T06:00:17;99813.31;;;4.41;95.95
13869;BME280;7004;48.206;16.402;2023-11-19T06:02:44;99817.50;;;4.70;95.02
13869;BME280;7004;48.206;16.402;2023-11-19T06:05:10;99817.38;;;4.26;95.35
13869;BME280;7004;48.206;16.402;2023-11-19T06:07:36;99819.31;;;4.44;96.18
13869;BME280;7004;48.206;16.402;2023-11-19T06:10:03;99816.03;;;4.61;96.07
13869;BME280;7004;48.206;16.402;2023-11-19T06:12:31;99816.41;;;4.52;95.05
13869;BME280;7004;48.206;16.402;2023-11-19T06:15:00;99815.44;;;4.78;95.46
13869;BME280;7004;48.206;16.402;2023-11-19T06:17:26;99812.81;;;4.78;93.91
13869;BME280;7004;48.206;16.402;2023-11-19T06:19:52;99821.13;;;4.42;97.06
13869;BME280;7004;48.206;16.402;2023-11-19T06:22:18;99820.56;;;4.57;95.63
13869;BME280;7004;48.206;16.402;2023-11-19T06:24:44;99825.72;;;4.82;94.79
13869;BME280;7004;48.206;16.402;2023-11-19T06:27:10;99817.28;;;4.74;96.47
13869;BME280;7004;48.206;16.402;2023-11-19T06:29:36;99821.50;;;4.78;96.86
13869;BME280;7004;48.206;16.402;2023-11-19T06:32:03;99821.78;;;4.94;96.53
13869;BME280;7004;48.206;16.402;2023-11-19T06:34:29;99809.78;;;5.11;95.71
13869;BME280;7004;48.206;16.402;2023-11-19T06:36:55;99810.88;;;4.83;97.92
13869;BME280;7004;48.206;16.402;2023-11-19T06:39:22;99801.81;;;5.14;95.39
13869;BME280;7004;48.206;16.402;2023-11-19T06:41:48;99809.38;;;4.76;97.93
13869;BME280;7004;48.206;16.402;2023-11-19T06:44:14;99814.22;;;4.87;98.77
13869;BME280;7004;48.206;16.402;2023-11-19T06:46:40;99804.06;;;5.01;98.31
13869;BME280;7004;48.206;16.402;2023-11-19T06:49:06;99806.78;;;4.52;99.96
13869;BME280;7004;48.206;16.402;2023-11-19T06:51:35;99803.00;;;5.05;98.81
13869;BME280;7004;48.206;16.402;2023-11-19T06:54:01;99801.06;;;4.88;98.43
13869;BME280;7004;48.206;16.402;2023-11-19T06:56:27;99797.28;;;5.17;96.62
13869;BME280;7004;48.206;16.402;2023-11-19T06:58:53;99788.38;;;4.99;96.38
13869;BME280;7004;48.206;16.402;2023-11-19T07:01:20;99784.63;;;4.61;97.67
13869;BME280;7004;48.206;16.402;2023-11-19T07:03:47;99779.91;;;4.93;97.33
13869;BME280;7004;48.206;16.402;2023-11-19T07:06:13;99785.94;;;4.73;98.12
13869;BME280;7004;48.206;16.402;2023-11-19T07:08:44;99775.63;;;4.90;98.05
13869;BME280;7004;48.206;16.402;2023-11-19T07:11:13;99785.78;;;4.77;97.92
13869;BME280;7004;48.206;16.402;2023-11-19T07:13:41;99763.78;;;4.81;99.71
13869;BME280;7004;48.206;16.402;2023-11-19T07:16:07;99762.91;;;4.81;98.47
13869;BME280;7004;48.206;16.402;2023-11-19T07:18:36;99766.28;;;5.07;97.17
13869;BME280;7004;48.206;16.402;2023-11-19T07:21:03;99751.47;;;4.84;97.95
13869;BME280;7004;48.206;16.402;2023-11-19T07:23:30;99746.97;;;5.09;98.51
13869;BME280;7004;48.206;16.402;2023-11-19T07:25:56;99746.94;;;4.87;97.81
13869;BME280;7004;48.206;16.402;2023-11-19T07:28:22;99746.47;;;4.99;98.57
13869;BME280;7004;48.206;16.402;2023-11-19T07:30:49;99740.97;;;5.06;97.57
13869;BME280;7004;48.206;16.402;2023-11-19T07:33:15;99741.25;;;4.77;96.89
13869;BME280;7004;48.206;16.402;2023-11-19T07:35:42;99736.06;;;4.76;97.74
13869;BME280;7004;48.206;16.402;2023-11-19T07:38:09;99735.06;;;4.56;99.98
13869;BME280;7004;48.206;16.402;2023-11-19T07:40:35;99718.28;;;4.84;98.76
13869;BME280;7004;48.206;16.402;2023-11-19T07:43:01;99725.28;;;4.38;99.77
13869;BME280;7004;48.206;16.402;2023-11-19T07:45:27;99733.91;;;4.64;99.37
13869;BME280;7004;48.206;16.402;2023-11-19T07:47:53;99731.69;;;4.98;97.87
13869;BME280;7004;48.206;16.402;2023-11-19T07:50:20;99733.50;;;4.74;99.83
13869;BME280;7004;48.206;16.402;2023-11-19T07:52:47;99719.66;;;4.93;97.98
13869;BME280;7004;48.206;16.402;2023-11-19T07:55:13;99725.78;;;4.93;99.72
13869;BME280;7004;48.206;16.402;2023-11-19T07:57:39;99723.94;;;4.73;99.18
13869;BME280;7004;48.206;16.402;2023-11-19T08:00:06;99723.94;;;4.73;98.27
13869;BME280;7004;48.206;16.402;2023-11-19T08:02:38;99722.63;;;5.28;96.87
13869;BME280;7004;48.206;16.402;2023-11-19T08:05:05;99716.13;;;4.72;98.35
13869;BME280;7004;48.206;16.402;2023-11-19T08:07:31;99724.06;;;4.70;99.77
13869;BME280;7004;48.206;16.402;2023-11-19T08:09:58;99720.97;;;4.82;98.72
13869;BME280;7004;48.206;16.402;2023-11-19T08:12:25;99727.28;;;4.55;100.00
13869;BME280;7004;48.206;16.402;2023-11-19T08:14:51;99726.81;;;4.89;99.95
13869;BME280;7004;48.206;16.402;2023-11-19T08:17:17;99719.31;;;5.02;98.54
13869;BME280;7004;48.206;16.402;2023-11-19T08:19:43;99729.34;;;4.47;99.77
13869;BME280;7004;48.206;16.402;2023-11-19T08:22:09;99716.84;;;4.97;99.86
13869;BME280;7004;48.206;16.402;2023-11-19T08:24:36;99720.28;;;4.99;98.43
13869;BME280;7004;48.206;16.402;2023-11-19T08:27:02;99723.00;;;5.39;97.49
13869;BME280;7004;48.206;16.402;2023-11-19T08:29:28;99720.78;;;5.30;96.92
13869;BME280;7004;48.206;16.402;2023-11-19T08:31:54;99711.06;;;5.32;97.64
13869;BME280;7004;48.206;16.402;2023-11-19T08:34:20;99715.53;;;5.09;99.20
13869;BME280;7004;48.206;16.402;2023-11-19T08:36:50;99713.66;;;4.91;99.58
13869;BME280;7004;48.206;16.402;2023-11-19T08:39:19;99706.06;;;5.27;98.14
13869;BME280;7004;48.206;16.402;2023-11-19T08:41:47;99708.78;;;5.03;99.39
13869;BME280;7004;48.206;16.402;2023-11-19T08:44:14;99698.94;;;5.50;98.74
13869;BME280;7004;48.206;16.402;2023-11-19T08:46:49;99705.44;;;5.20;97.25
13869;BME280;7004;48.206;16.402;2023-11-19T08:49:15;99693.78;;;5.28;97.62
13869;BME280;7004;48.206;16.402;2023-11-19T08:51:41;99693.16;;;5.00;99.34
13869;BME280;7004;48.206;16.402;2023-11-19T08:54:08;99697.06;;;5.74;97.85
13869;BME280;7004;48.206;16.402;2023-11-19T08:56:34;99700.91;;;5.44;98.96
13869;BME280;7004;48.206;16.402;2023-11-19T08:59:01;99696.59;;;5.84;98.58
13869;BME280;7004;48.206;16.402;2023-11-19T09:01:27;99713.13;;;5.86;96.55
13869;BME280;7004;48.206;16.402;2023-11-19T09:03:54;99735.94;;;6.05;95.87
13869;BME280;7004;48.206;16.402;2023-11-19T09:06:20;99730.28;;;5.94;95.29
13869;BME280;7004;48.206;16.402;2023-11-19T09:08:46;99737.94;;;6.19;95.44
13869;BME280;7004;48.206;16.402;2023-11-19T09:11:12;99727.47;;;5.78;96.25
13869;BME280;7004;48.206;16.402;2023-11-19T09:13:38;99718.88;;;5.74;96.77
13869;BME280;7004;48.206;16.402;2023-11-19T09:16:05;99709.00;;;6.20;96.21
13869;BME280;7004;48.206;16.402;2023-11-19T09:18:31;99695.75;;;5.84;95.78
13869;BME280;7004;48.206;16.402;2023-11-19T09:20:58;99686.22;;;5.81;96.23
13869;BME280;7004;48.206;16.402;2023-11-19T09:23:24;99674.59;;;5.87;96.05
13869;BME280;7004;48.206;16.402;2023-11-19T09:25:51;99660.41;;;6.11;96.43
13869;BME280;7004;48.206;16.402;2023-11-19T09:28:17;99663.88;;;6.31;93.66
13869;BME280;7004;48.206;16.402;2023-11-19T09:30:43;99667.63;;;5.67;93.60
13869;BME280;7004;48.206;16.402;2023-11-19T09:33:09;99660.47;;;6.29;93.06
13869;BME280;7004;48.206;16.402;2023-11-19T09:35:36;99640.91;;;6.53;91.57
13869;BME280;7004;48.206;16.402;2023-11-19T09:38:02;99641.97;;;6.13;92.91
13869;BME280;7004;48.206;16.402;2023-11-19T09:40:28;99640.13;;;6.15;92.52
13869;BME280;7004;48.206;16.402;2023-11-19T09:42:54;99648.66;;;6.38;92.76
13869;BME280;7004;48.206;16.402;2023-11-19T09:45:21;99653.97;;;6.55;92.43
13869;BME280;7004;48.206;16.402;2023-11-19T09:47:47;99651.34;;;6.55;92.68
13869;BME280;7004;48.206;16.402;2023-11-19T09:50:18;99650.88;;;6.47;93.29
13869;BME280;7004;48.206;16.402;2023-11-19T09:52:48;99652.88;;;6.42;91.10
13869;BME280;7004;48.206;16.402;2023-11-19T09:55:15;99642.53;;;6.75;92.56
13869;BME280;7004;48.206;16.402;2023-11-19T09:57:41;99641.16;;;6.66;93.55
13869;BME280;7004;48.206;16.402;2023-11-19T10:00:08;99647.25;;;6.86;92.75
13869;BME280;7004;48.206;16.402;2023-11-19T10:02:37;99612.38;;;6.28;94.50
13869;BME280;7004;48.206;16.402;2023-11-19T10:05:07;99629.69;;;6.13;94.62
13869;BME280;7004;48.206;16.402;2023-11-19T10:07:34;99611.84;;;6.39;94.48
13869;BME280;7004;48.206;16.402;2023-11-19T10:10:01;99610.00;;;6.41;92.83
13869;BME280;7004;48.206;16.402;2023-11-19T10:12:30;99615.44;;;6.55;93.12
13869;BME280;7004;48.206;16.402;2023-11-19T10:14:59;99616.28;;;6.56;90.77
13869;BME280;7004;48.206;16.402;2023-11-19T10:17:32;99620.63;;;6.74;93.22
13869;BME280;7004;48.206;16.402;2023-11-19T10:19:58;99618.63;;;6.97;90.43
13869;BME280;7004;48.206;16.402;2023-11-19T10:22:25;99616.63;;;7.19;90.82
13869;BME280;7004;48.206;16.402;2023-11-19T10:24:53;99619.41;;;6.99;92.74
13869;BME280;7004;48.206;16.402;2023-11-19T10:27:19;99622.59;;;7.06;88.80
13869;BME280;7004;48.206;16.402;2023-11-19T10:29:46;99616.25;;;7.10;91.18
13869;BME280;7004;48.206;16.402;2023-11-19T10:32:13;99610.38;;;7.22;92.50
13869;BME280;7004;48.206;16.402;2023-11-19T10:34:43;99611.22;;;6.88;89.95
13869;BME280;7004;48.206;16.402;2023-11-19T10:37:11;99610.53;;;7.02;89.00
13869;BME280;7004;48.206;16.402;2023-11-19T10:39:54;99595.75;;;6.64;91.93
13869;BME280;7004;48.206;16.402;2023-11-19T10:42:20;99597.59;;;6.79;90.70
13869;BME280;7004;48.206;16.402;2023-11-19T10:44:47;99580.88;;;6.46;92.24
13869;BME280;7004;48.206;16.402;2023-11-19T10:47:19;99569.00;;;6.56;93.19
13869;BME280;7004;48.206;16.402;2023-11-19T10:49:45;99586.56;;;7.08;91.44
13869;BME280;7004;48.206;16.402;2023-11-19T10:52:12;99569.72;;;6.77;92.91
13869;BME280;7004;48.206;16.402;2023-11-19T10:54:44;99557.34;;;6.79;91.96
13869;BME280;7004;48.206;16.402;2023-11-19T10:57:20;99563.34;;;7.16;90.65
13869;BME280;7004;48.206;16.402;2023-11-19T10:59:52;99548.06;;;6.89;91.50
13869;BME280;7004;48.206;16.402;2023-11-19T11:02:24;99559.81;;;6.82;92.99
13869;BME280;7004;48.206;16.402;2023-11-19T11:04:53;99551.88;;;6.66;91.92
13869;BME280;7004;48.206;16.402;2023-11-19T11:07:22;99549.00;;;6.53;91.19
13869;BME280;7004;48.206;16.402;2023-11-19T11:09:53;99539.59;;;6.49;92.58
13869;BME280;7004;48.206;16.402;2023-11-19T11:12:22;99539.56;;;7.02;91.94
13869;BME280;7004;48.206;16.402;2023-11-19T11:14:50;99542.84;;;6.72;92.96
13869;BME280;7004;48.206;16.402;2023-11-19T11:17:18;99532.78;;;6.63;92.34
13869;BME280;7004;48.206;16.402;2023-11-19T11:19:45;99541.53;;;6.63;95.07
13869;BME280;7004;48.206;16.402;2023-11-19T11:22:12;99534.41;;;6.65;96.45
13869;BME280;7004;48.206;16.402;2023-11-19T11:39:36;99535.69;;;7.09;96.17
13869;BME280;7004;48.206;16.402;2023-11-19T11:45:05;99536.47;;;7.11;96.27
13869;BME280;7004;48.206;16.402;2023-11-19T11:50:17;99531.78;;;7.33;94.15
13869;BME280;7004;48.206;16.402;2023-11-19T11:58:00;99538.78;;;6.99;97.44
13869;BME280;7004;48.206;16.402;2023-11-19T12:00:29;99537.50;;;6.91;97.80
13869;BME280;7004;48.206;16.402;2023-11-19T12:02:58;99542.63;;;6.59;98.40
13869;BME280;7004;48.206;16.402;2023-11-19T12:05:25;99533.78;;;6.60;98.95
13869;BME280;7004;48.206;16.402;2023-11-19T12:08:04;99531.31;;;6.92;98.17
13869;BME280;7004;48.206;16.402;2023-11-19T12:10:42;99526.84;;;6.42;99.13
13869;BME280;7004;48.206;16.402;2023-11-19T12:13:09;99519.78;;;6.77;97.05
13869;BME280;7004;48.206;16.402;2023-11-19T12:18:30;99517.94;;;7.30;96.91
13869;BME280;7004;48.206;16.402;2023-11-19T12:21:00;99513.53;;;6.97;96.69
13869;BME280;7004;48.206;16.402;2023-11-19T12:23:29;99514.28;;;7.16;95.97
13869;BME280;7004;48.206;16.402;2023-11-19T12:25:56;99508.09;;;7.33;95.71
13869;BME280;7004;48.206;16.402;2023-11-19T12:28:22;99503.78;;;6.99;95.08
13869;BME280;7004;48.206;16.402;2023-11-19T12:30:50;99497.72;;;7.48;96.96
13869;BME280;7004;48.206;16.402;2023-11-19T12:33:18;99494.50;;;7.09;96.72
13869;BME280;7004;48.206;16.402;2023-11-19T12:35:48;99495.13;;;6.97;97.97
13869;BME280;7004;48.206;16.402;2023-11-19T12:40:46;99494.56;;;7.57;97.31
13869;BME280;7004;48.206;16.402;2023-11-19T12:43:22;99479.47;;;7.60;97.54
13869;BME280;7004;48.206;16.402;2023-11-19T12:45:48;99500.44;;;7.13;97.75
13869;BME280;7004;48.206;16.402;2023-11-19T12:48:14;99484.59;;;7.14;99.21
13869;BME280;7004;48.206;16.402;2023-11-19T12:50:53;99488.09;;;7.47;100.00
13869;BME280;7004;48.206;16.402;2023-11-19T12:53:21;99486.28;;;7.15;100.00
13869;BME280;7004;48.206;16.402;2023-11-19T12:55:47;99487.59;;;7.40;98.84
13869;BME280;7004;48.206;16.402;2023-11-19T12:58:34;99492.69;;;7.59;98.87
13869;BME280;7004;48.206;16.402;2023-11-19T13:01:06;99493.72;;;7.07;98.58
13869;BME280;7004;48.206;16.402;2023-11-19T13:03:36;99491.31;;;7.03;100.00
13869;BME280;7004;48.206;16.402;2023-11-19T13:06:09;99490.06;;;7.43;100.00
13869;BME280;7004;48.206;16.402;2023-11-19T13:08:41;99476.66;;;7.48;100.00
13869;BME280;7004;48.206;16.402;2023-11-19T13:11:08;99470.22;;;7.04;100.00
13869;BME280;7004;48.206;16.402;2023-11-19T13:16:19;99456.69;;;7.12;100.00
13869;BME280;7004;48.206;16.402;2023-11-19T13:18:45;99459.16;;;7.47;100.00
13869;BME280;7004;48.206;16.402;2023-11-19T13:21:11;99473.06;;;7.17;100.00
13869;BME280;7004;48.206;16.402;2023-11-19T13:23:38;99459.34;;;7.75;100.00
13869;BME280;7004;48.206;16.402;2023-11-19T13:26:04;99454.94;;;7.76;100.00
13869;BME280;7004;48.206;16.402;2023-11-19T13:28:32;99451.03;;;7.51;100.00
13869;BME280;7004;48.206;16.402;2023-11-19T13:30:58;99450.00;;;7.85;100.00
13869;BME280;7004;48.206;16.402;2023-11-19T13:33:24;99456.88;;;7.72;100.00
13869;BME280;7004;48.206;16.402;2023-11-19T13:35:50;99463.53;;;7.63;100.00
13869;BME280;7004;48.206;16.402;2023-11-19T13:38:16;99471.47;;;7.46;100.00
13869;BME280;7004;48.206;16.402;2023-11-19T13:40:42;99473.63;;;7.55;100.00
13869;BME280;7004;48.206;16.402;2023-11-19T13:43:08;99467.16;;;7.61;100.00